createdAt,value
2023-02-02T00:01:21.850Z,25.63
2023-02-02T00:03:50.895Z,23.47
2023-02-02T00:06:23.643Z,27.20
2023-02-02T00:08:50.514Z,22.10
2023-02-02T00:11:18.134Z,21.63
2023-02-02T00:13:44.830Z,28.30
2023-02-02T00:16:26.733Z,24.47
2023-02-02T00:18:54.646Z,21.93
2023-02-02T00:21:21.434Z,24.73
2023-02-02T00:23:48.328Z,29.13
2023-02-02T00:26:15.327Z,29.57
2023-02-02T00:28:42.321Z,24.90
2023-02-02T00:31:09.555Z,25.60
2023-02-02T00:33:36.333Z,22.97
2023-02-02T00:36:04.035Z,19.83
2023-02-02T00:38:31.871Z,33.00
2023-02-02T00:40:58.514Z,22.93
2023-02-02T00:43:25.136Z,26.90
2023-02-02T00:45:52.205Z,24.70
2023-02-02T00:48:19.072Z,29.17
2023-02-02T00:50:45.991Z,38.80
2023-02-02T00:53:12.661Z,22.53
2023-02-02T00:55:39.417Z,26.77
2023-02-02T00:58:06.085Z,26.63
2023-02-02T01:00:32.752Z,23.87
2023-02-02T01:03:04.319Z,21.63
2023-02-02T01:05:31.795Z,28.10
2023-02-02T01:07:58.453Z,23.27
2023-02-02T01:10:25.151Z,23.93
2023-02-02T01:12:52.012Z,24.03
2023-02-02T01:15:18.794Z,26.57
2023-02-02T01:17:45.488Z,31.43
2023-02-02T01:20:20.016Z,27.00
2023-02-02T01:22:47.453Z,22.10
2023-02-02T01:25:14.508Z,34.77
2023-02-02T01:27:43.057Z,20.50
2023-02-02T01:30:10.706Z,25.20
2023-02-02T01:32:37.384Z,31.53
2023-02-02T01:35:04.225Z,32.63
2023-02-02T01:37:30.960Z,24.63
2023-02-02T01:39:57.723Z,36.83
2023-02-02T01:42:24.624Z,30.63
2023-02-02T01:45:34.004Z,21.57
2023-02-02T01:48:00.899Z,20.93
2023-02-02T01:50:34.797Z,18.10
2023-02-02T01:53:06.321Z,15.63
2023-02-02T01:55:37.594Z,25.03
2023-02-02T01:58:09.757Z,22.77
2023-02-02T02:00:37.842Z,23.10
2023-02-02T02:03:11.333Z,24.70
2023-02-02T02:06:03.654Z,18.17
2023-02-02T02:08:34.517Z,26.53
2023-02-02T02:11:01.662Z,17.03
2023-02-02T02:13:48.797Z,18.37
2023-02-02T02:16:55.471Z,14.97
2023-02-02T02:20:11.629Z,15.67
2023-02-02T02:23:15.024Z,17.33
2023-02-02T02:26:15.146Z,14.73
2023-02-02T02:29:10.281Z,19.27
2023-02-02T02:32:10.196Z,16.27
2023-02-02T02:35:00.096Z,18.63
2023-02-02T02:37:45.965Z,12.27
2023-02-02T02:40:51.143Z,11.53
2023-02-02T02:43:29.659Z,15.50
2023-02-02T02:45:56.561Z,13.50
2023-02-02T02:48:24.428Z,11.30
2023-02-02T02:50:51.191Z,10.83
2023-02-02T02:53:21.714Z,11.63
2023-02-02T02:56:25.301Z,8.63
2023-02-02T02:59:26.401Z,18.37
2023-02-02T03:02:08.430Z,12.27
2023-02-02T03:04:45.800Z,9.60
2023-02-02T03:07:23.375Z,10.97
2023-02-02T03:09:53.035Z,12.00
2023-02-02T03:12:19.787Z,15.50
2023-02-02T03:14:46.554Z,10.40
2023-02-02T03:17:13.227Z,15.20
2023-02-02T03:19:40.019Z,10.83
2023-02-02T03:22:06.928Z,13.87
2023-02-02T03:24:33.590Z,11.67
2023-02-02T03:27:00.318Z,13.17
2023-02-02T03:29:28.149Z,10.37
2023-02-02T03:31:54.917Z,12.60
2023-02-02T03:34:21.589Z,14.93
2023-02-02T03:36:48.220Z,9.23
2023-02-02T03:39:14.895Z,14.03
2023-02-02T03:41:41.585Z,8.83
2023-02-02T03:44:08.264Z,13.63
2023-02-02T03:46:35.411Z,13.90
2023-02-02T03:49:02.177Z,21.17
2023-02-02T03:51:28.838Z,22.00
2023-02-02T03:53:55.492Z,20.87
2023-02-02T03:56:22.155Z,27.07
2023-02-02T03:58:48.907Z,29.40
2023-02-02T04:01:16.058Z,29.63
2023-02-02T04:03:43.034Z,31.13
2023-02-02T04:06:09.852Z,36.90
2023-02-02T04:08:36.718Z,43.80
2023-02-02T04:11:03.476Z,27.80
2023-02-02T04:13:30.887Z,27.33
2023-02-02T04:16:00.055Z,27.07
2023-02-02T04:18:26.960Z,37.20
2023-02-02T04:21:01.164Z,29.70
2023-02-02T04:23:31.698Z,35.37
2023-02-02T04:25:59.458Z,29.37
2023-02-02T04:28:27.259Z,30.77
2023-02-02T04:30:55.154Z,26.83
2023-02-02T04:33:22.969Z,31.07
2023-02-02T04:35:49.821Z,37.03
2023-02-02T04:38:16.480Z,27.90
2023-02-02T04:40:45.231Z,26.83
2023-02-02T04:43:12.534Z,31.50
2023-02-02T04:45:39.605Z,34.43
2023-02-02T04:48:06.453Z,36.97
2023-02-02T04:50:33.632Z,26.80
2023-02-02T04:53:00.280Z,27.23
2023-02-02T04:55:28.067Z,35.80
2023-02-02T04:57:55.754Z,26.73
2023-02-02T05:00:22.481Z,29.63
2023-02-02T05:02:49.290Z,29.47
2023-02-02T05:05:16.065Z,23.67
2023-02-02T05:07:42.762Z,42.97
2023-02-02T05:10:10.373Z,34.53
2023-02-02T05:12:37.180Z,34.57
2023-02-02T05:15:05.641Z,40.17
2023-02-02T05:17:32.953Z,29.60
2023-02-02T05:19:59.639Z,33.13
2023-02-02T05:22:27.022Z,27.67
2023-02-02T05:24:53.771Z,26.57
2023-02-02T05:27:21.004Z,32.70
2023-02-02T05:29:48.458Z,25.07
2023-02-02T05:32:15.388Z,38.30
2023-02-02T05:34:42.302Z,31.50
2023-02-02T05:37:09.091Z,27.03
2023-02-02T05:39:35.840Z,35.83
2023-02-02T05:42:02.534Z,31.10
2023-02-02T05:44:29.183Z,32.63
2023-02-02T05:46:56.056Z,31.10
2023-02-02T05:49:22.997Z,31.87
2023-02-02T05:51:57.044Z,39.87
2023-02-02T05:54:24.115Z,32.53
2023-02-02T05:56:53.191Z,34.87
2023-02-02T05:59:20.263Z,39.27
2023-02-02T06:01:47.317Z,33.17
2023-02-02T06:04:14.685Z,35.87
2023-02-02T06:06:42.185Z,30.33
2023-02-02T06:09:09.041Z,40.20
2023-02-02T06:11:35.787Z,31.07
2023-02-02T06:14:02.601Z,24.30
2023-02-02T06:16:29.403Z,31.87
2023-02-02T06:18:56.392Z,27.00
2023-02-02T06:21:24.664Z,31.47
2023-02-02T06:23:52.138Z,26.73
2023-02-02T06:26:19.778Z,33.37
2023-02-02T06:28:51.672Z,37.87
2023-02-02T06:31:19.488Z,26.83
2023-02-02T06:33:47.965Z,36.97
2023-02-02T06:36:14.734Z,25.27
2023-02-02T06:38:41.428Z,25.40
2023-02-02T06:41:08.121Z,37.90
2023-02-02T06:43:34.930Z,42.77
2023-02-02T06:46:01.700Z,36.43
2023-02-02T06:48:28.450Z,31.27
2023-02-02T06:50:59.276Z,30.10
2023-02-02T06:53:26.775Z,29.63
2023-02-02T06:55:57.736Z,38.83
2023-02-02T06:58:24.408Z,28.13
2023-02-02T07:00:51.096Z,25.23
2023-02-02T07:03:18.674Z,30.40
2023-02-02T07:05:45.387Z,32.42
2023-02-02T07:08:12.091Z,35.93
2023-02-02T07:11:11.977Z,29.53
2023-02-02T07:13:25.679Z,20.57
2023-02-02T07:15:54.585Z,31.27
2023-02-02T07:18:22.491Z,26.40
2023-02-02T07:20:49.147Z,30.57
2023-02-02T07:23:15.890Z,32.60
2023-02-02T07:25:43.968Z,21.20
2023-02-02T07:28:10.848Z,25.47
2023-02-02T07:30:37.638Z,28.83
2023-02-02T07:33:04.307Z,28.27
2023-02-02T07:35:30.968Z,25.83
2023-02-02T07:37:57.814Z,25.37
2023-02-02T07:40:24.453Z,27.57
2023-02-02T07:42:51.186Z,26.47
2023-02-02T07:45:27.058Z,25.23
2023-02-02T07:47:59.156Z,28.20
2023-02-02T07:50:26.935Z,21.87
2023-02-02T07:52:53.909Z,25.63
2023-02-02T07:55:21.006Z,28.83
2023-02-02T07:57:47.666Z,32.60
2023-02-02T08:00:14.677Z,29.67
2023-02-02T08:02:41.381Z,26.43
2023-02-02T08:05:08.335Z,31.17
2023-02-02T08:07:35.277Z,30.80
2023-02-02T08:10:02.167Z,28.37
2023-02-02T08:12:28.938Z,24.23
2023-02-02T08:14:55.704Z,21.40
2023-02-02T08:17:23.528Z,33.87
2023-02-02T08:19:50.665Z,29.00
2023-02-02T08:22:19.408Z,30.50
2023-02-02T08:24:48.037Z,33.10
2023-02-02T08:27:16.197Z,25.43
2023-02-02T08:29:43.256Z,28.67
2023-02-02T08:32:09.930Z,24.87
2023-02-02T08:34:37.049Z,29.33
2023-02-02T08:37:04.395Z,29.23
2023-02-02T08:39:31.221Z,29.67
2023-02-02T08:41:58.243Z,25.00
2023-02-02T08:44:26.416Z,21.47
2023-02-02T08:47:08.689Z,30.87
2023-02-02T08:49:35.680Z,33.47
2023-02-02T08:52:02.317Z,26.37
2023-02-02T08:54:29.229Z,33.57
2023-02-02T08:56:56.735Z,30.17
2023-02-02T08:59:23.384Z,32.77
2023-02-02T09:01:50.144Z,29.80
2023-02-02T09:04:17.014Z,32.00
2023-02-02T09:06:44.492Z,35.00
2023-02-02T09:09:14.779Z,32.97
2023-02-02T09:11:42.941Z,31.87
2023-02-02T09:14:11.838Z,30.60
2023-02-02T09:16:38.914Z,27.70
2023-02-02T09:19:06.534Z,34.97
2023-02-02T09:21:37.232Z,44.70
2023-02-02T09:24:09.653Z,32.00
2023-02-02T09:26:36.498Z,25.23
2023-02-02T09:29:05.927Z,37.13
2023-02-02T09:31:36.882Z,22.83
2023-02-02T09:34:09.564Z,26.40
2023-02-02T09:36:37.959Z,28.17
2023-02-02T09:39:05.969Z,29.67
2023-02-02T09:41:38.660Z,26.93
2023-02-02T09:44:30.711Z,24.70
2023-02-02T09:47:23.392Z,31.27
2023-02-02T09:50:01.885Z,29.07
2023-02-02T09:52:37.026Z,25.63
2023-02-02T09:55:14.412Z,26.63
2023-02-02T09:57:55.402Z,30.07
2023-02-02T10:00:33.543Z,23.80
2023-02-02T10:03:06.481Z,25.20
2023-02-02T10:05:49.253Z,32.17
2023-02-02T10:08:34.290Z,29.50
2023-02-02T10:11:12.955Z,30.00
2023-02-02T10:13:43.539Z,32.17
2023-02-02T10:16:23.994Z,25.73
2023-02-02T10:19:04.057Z,24.10
2023-02-02T10:21:45.916Z,32.10
2023-02-02T10:24:24.959Z,32.17
2023-02-02T10:26:58.355Z,27.50
2023-02-02T10:29:25.046Z,28.93
2023-02-02T10:32:13.186Z,27.27
2023-02-02T10:35:12.558Z,20.20
2023-02-02T10:38:02.900Z,31.43
2023-02-02T10:40:59.885Z,23.43
2023-02-02T10:43:59.750Z,23.80
2023-02-02T10:46:36.797Z,27.10
2023-02-02T10:49:22.694Z,27.47
2023-02-02T10:51:55.997Z,23.67
2023-02-02T10:54:55.912Z,26.97
2023-02-02T10:57:49.614Z,22.47
2023-02-02T11:00:28.330Z,26.70
2023-02-02T11:02:56.065Z,24.87
2023-02-02T11:05:44.140Z,26.17
2023-02-02T11:08:27.997Z,30.80
2023-02-02T11:10:56.849Z,27.90
2023-02-02T11:13:33.568Z,20.10
2023-02-02T11:16:15.428Z,23.17
2023-02-02T11:18:44.244Z,30.60
2023-02-02T11:21:23.813Z,32.13
2023-02-02T11:24:02.330Z,22.90
2023-02-02T11:26:51.582Z,23.97
2023-02-02T11:29:29.864Z,28.13
2023-02-02T11:31:57.011Z,21.57
2023-02-02T11:34:26.463Z,26.23
2023-02-02T11:37:12.785Z,24.03
2023-02-02T11:39:41.469Z,24.33
2023-02-02T11:42:18.263Z,30.07
2023-02-02T11:44:57.693Z,22.07
2023-02-02T11:47:33.261Z,24.30
2023-02-02T11:50:03.983Z,29.47
2023-02-02T11:52:33.059Z,25.23
2023-02-02T11:55:02.129Z,28.30
2023-02-02T11:57:30.543Z,25.70
2023-02-02T12:00:17.739Z,24.97
2023-02-02T12:02:49.353Z,22.63
2023-02-02T12:05:23.541Z,25.43
2023-02-02T12:07:50.383Z,25.93
2023-02-02T12:10:24.234Z,20.73
2023-02-02T12:13:02.877Z,21.80
2023-02-02T12:15:49.192Z,27.33
2023-02-02T12:18:47.543Z,21.43
2023-02-02T12:21:33.070Z,21.03
2023-02-02T12:23:59.701Z,31.60
2023-02-02T12:26:32.651Z,26.63
2023-02-02T12:29:08.127Z,26.83
2023-02-02T12:31:40.683Z,21.47
2023-02-02T12:34:29.998Z,28.50
2023-02-02T12:37:30.908Z,29.40
2023-02-02T12:40:03.337Z,21.03
2023-02-02T12:43:11.493Z,23.63
2023-02-02T12:46:15.953Z,23.23
2023-02-02T12:49:04.443Z,24.40
2023-02-02T12:51:37.515Z,27.50
2023-02-02T12:54:32.725Z,25.80
2023-02-02T12:57:35.606Z,33.43
2023-02-02T13:00:42.643Z,26.87
2023-02-02T13:03:28.578Z,25.80
2023-02-02T13:09:12.104Z,20.50
2023-02-02T13:11:49.731Z,19.80
2023-02-02T13:14:25.483Z,17.83
2023-02-02T13:16:57.027Z,29.60
2023-02-02T13:19:30.989Z,24.57
2023-02-02T13:22:00.374Z,32.03
2023-02-02T13:24:34.625Z,20.70
2023-02-02T13:27:04.170Z,23.13
2023-02-02T13:29:47.958Z,20.93
2023-02-02T13:32:34.348Z,21.10
2023-02-02T13:35:05.259Z,21.73
2023-02-02T13:37:42.795Z,20.90
2023-02-02T13:40:32.463Z,24.57
2023-02-02T13:43:36.303Z,23.60
2023-02-02T13:46:27.651Z,23.50
2023-02-02T13:49:08.311Z,21.87
2023-02-02T13:51:46.900Z,18.10
2023-02-02T13:54:32.293Z,18.47
2023-02-02T13:57:20.651Z,15.90
2023-02-02T13:59:53.657Z,25.53
2023-02-02T14:02:41.681Z,22.70
2023-02-02T14:05:17.424Z,21.27
2023-02-02T14:07:46.328Z,19.93
2023-02-02T14:10:29.267Z,23.57
2023-02-02T14:12:56.297Z,19.63
2023-02-02T14:15:39.973Z,22.93
2023-02-02T14:18:06.962Z,20.73
2023-02-02T14:20:48.511Z,14.13
2023-02-02T14:23:53.992Z,21.30
2023-02-02T14:26:47.422Z,20.63
2023-02-02T14:29:32.463Z,22.60
2023-02-02T14:32:20.446Z,22.87
2023-02-02T14:34:47.162Z,19.37
2023-02-02T14:37:28.570Z,15.30
2023-02-02T14:40:08.512Z,13.33
2023-02-02T14:43:31.472Z,16.60
2023-02-02T14:46:13.245Z,18.83
2023-02-02T14:48:46.514Z,11.80
2023-02-02T14:51:18.892Z,9.60
2023-02-02T14:54:00.696Z,15.27
2023-02-02T14:56:49.831Z,7.73
2023-02-02T14:59:24.897Z,9.37
2023-02-02T15:02:01.410Z,9.33
2023-02-02T15:04:29.233Z,9.57
2023-02-02T15:06:56.586Z,9.67
2023-02-02T15:09:23.425Z,12.17
2023-02-02T15:12:00.804Z,7.83
2023-02-02T15:14:56.607Z,4.23
2023-02-02T15:17:32.604Z,6.83
2023-02-02T15:20:08.266Z,4.37
2023-02-02T15:22:53.735Z,4.30
2023-02-02T15:25:42.105Z,7.17
2023-02-02T15:28:41.408Z,7.53
2023-02-02T15:31:23.149Z,4.50
2023-02-02T15:33:53.782Z,4.23
2023-02-02T15:36:32.484Z,4.30
2023-02-02T15:39:03.873Z,4.20
2023-02-02T15:41:34.574Z,6.70
2023-02-02T15:44:01.758Z,6.37
2023-02-02T15:46:38.265Z,3.97
2023-02-02T15:49:36.216Z,3.30
2023-02-02T15:52:25.172Z,3.07
2023-02-02T15:54:59.788Z,4.10
2023-02-02T15:57:33.394Z,7.00
2023-02-02T16:00:02.464Z,3.73
2023-02-02T16:02:31.853Z,4.17
2023-02-02T16:04:58.619Z,6.07
2023-02-02T16:07:30.892Z,4.20
2023-02-02T16:10:06.291Z,4.17
2023-02-02T16:12:34.390Z,5.00
2023-02-02T16:15:01.260Z,5.87
2023-02-02T16:17:30.374Z,7.07
2023-02-02T16:20:14.482Z,6.53
2023-02-02T16:22:45.225Z,6.90
2023-02-02T16:25:17.121Z,8.63
2023-02-02T16:27:47.678Z,9.90
2023-02-02T16:30:29.368Z,13.73
2023-02-02T16:32:56.290Z,29.00
2023-02-02T16:35:35.461Z,11.20
2023-02-02T16:38:22.205Z,21.30
2023-02-02T16:40:49.170Z,32.87
2023-02-02T16:43:21.126Z,12.30
2023-02-02T16:45:51.957Z,31.33
2023-02-02T16:48:18.730Z,19.70
2023-02-02T16:50:47.185Z,18.33
2023-02-02T16:53:23.839Z,19.13
2023-02-02T16:55:51.714Z,22.00
2023-02-02T16:58:21.855Z,25.40
2023-02-02T17:01:15.551Z,22.83
2023-02-02T17:03:52.528Z,20.47
2023-02-02T17:06:41.628Z,25.63
2023-02-02T17:09:37.942Z,27.63
2023-02-02T17:12:33.266Z,29.93
2023-02-02T17:15:25.774Z,25.30
2023-02-02T17:17:53.481Z,28.47
2023-02-02T17:20:20.395Z,28.10
2023-02-02T17:22:50.558Z,28.93
2023-02-02T17:25:21.278Z,36.43
2023-02-02T17:27:48.365Z,25.47
2023-02-02T17:30:18.701Z,28.63
2023-02-02T17:32:45.588Z,25.80
2023-02-02T17:35:21.013Z,30.80
2023-02-02T17:37:48.281Z,25.00
2023-02-02T17:40:16.465Z,27.67
2023-02-02T17:42:45.036Z,30.73
2023-02-02T17:45:34.040Z,33.83
2023-02-02T17:48:01.288Z,31.10
2023-02-02T17:50:29.286Z,28.70
2023-02-02T17:52:55.999Z,31.67
2023-02-02T17:55:30.862Z,39.10
2023-02-02T17:57:57.834Z,33.50
2023-02-02T18:00:28.062Z,33.37
2023-02-02T18:03:17.973Z,31.17
2023-02-02T18:05:44.635Z,33.53
2023-02-02T18:08:12.274Z,32.27
2023-02-02T18:10:39.486Z,31.90
2023-02-02T18:13:06.763Z,34.03
2023-02-02T18:15:35.117Z,29.97
2023-02-02T18:18:02.530Z,30.30
2023-02-02T18:20:29.383Z,31.07
2023-02-02T18:22:56.099Z,36.90
2023-02-02T18:25:24.764Z,37.97
2023-02-02T18:27:52.399Z,37.77
2023-02-02T18:30:19.463Z,34.10
2023-02-02T18:32:46.136Z,30.13
2023-02-02T18:35:12.795Z,37.57
2023-02-02T18:37:39.411Z,37.40
2023-02-02T18:40:08.038Z,43.90
2023-02-02T18:42:36.018Z,40.93
2023-02-02T18:45:04.076Z,44.90
2023-02-02T18:47:30.746Z,39.13
2023-02-02T18:49:57.363Z,41.20
2023-02-02T18:52:24.078Z,39.27
2023-02-02T18:54:50.792Z,38.67
2023-02-02T18:57:17.962Z,36.90
2023-02-02T18:59:44.597Z,39.73
2023-02-02T19:02:14.589Z,36.60
2023-02-02T19:05:00.426Z,47.57
2023-02-02T19:07:45.943Z,44.00
2023-02-02T19:10:12.664Z,44.13
2023-02-02T19:12:39.283Z,38.03
2023-02-02T19:15:13.357Z,38.40
2023-02-02T19:17:40.489Z,41.47
2023-02-02T19:20:23.920Z,38.50
2023-02-02T19:22:53.036Z,41.60
2023-02-02T19:25:19.713Z,42.60
2023-02-02T19:27:46.410Z,41.87
2023-02-02T19:30:20.245Z,46.23
2023-02-02T19:32:47.110Z,49.93
2023-02-02T19:35:21.336Z,53.43
2023-02-02T19:37:49.454Z,39.90
2023-02-02T19:40:19.984Z,44.47
2023-02-02T19:43:06.845Z,44.77
2023-02-02T19:45:34.339Z,40.97
2023-02-02T19:48:06.684Z,49.40
2023-02-02T19:50:38.893Z,45.77
2023-02-02T19:53:18.566Z,45.43
2023-02-02T19:55:45.560Z,44.73
2023-02-02T19:58:23.543Z,47.73
2023-02-02T20:00:52.040Z,43.77
2023-02-02T20:03:27.740Z,46.53
2023-02-02T20:05:57.386Z,38.83
2023-02-02T20:08:42.764Z,41.13
2023-02-02T20:11:24.473Z,50.97
2023-02-02T20:13:51.477Z,38.60
2023-02-02T20:16:23.868Z,39.07
2023-02-02T20:18:57.777Z,35.93
2023-02-02T20:21:38.364Z,44.70
2023-02-02T20:24:33.823Z,40.67
2023-02-02T20:27:11.044Z,40.60
2023-02-02T20:29:41.307Z,34.53
2023-02-02T20:32:15.405Z,39.90
2023-02-02T20:34:44.845Z,35.27
2023-02-02T20:37:29.011Z,36.57
2023-02-02T20:39:57.289Z,38.13
2023-02-02T20:42:23.940Z,37.57
2023-02-02T20:44:51.076Z,37.50
2023-02-02T20:47:18.150Z,41.97
2023-02-02T20:49:45.010Z,45.40
2023-02-02T20:52:18.222Z,38.93
2023-02-02T20:54:44.852Z,41.10
2023-02-02T20:57:11.501Z,36.97
2023-02-02T20:59:38.139Z,38.13
2023-02-02T21:02:05.385Z,40.90
2023-02-02T21:04:32.534Z,39.77
2023-02-02T21:07:02.200Z,44.70
2023-02-02T21:09:28.843Z,41.40
2023-02-02T21:11:55.465Z,35.10
2023-02-02T21:14:22.129Z,33.43
2023-02-02T21:16:48.818Z,40.23
2023-02-02T21:19:15.500Z,35.90
2023-02-02T21:21:42.197Z,35.43
2023-02-02T21:24:09.187Z,36.47
2023-02-02T21:26:35.880Z,34.40
2023-02-02T21:29:02.549Z,27.27
2023-02-02T21:31:29.994Z,37.80
2023-02-02T21:33:56.811Z,33.63
2023-02-02T21:36:31.970Z,29.83
2023-02-02T21:39:15.162Z,37.83
2023-02-02T21:41:41.883Z,31.93
2023-02-02T21:44:16.637Z,28.20
2023-02-02T21:46:44.179Z,29.83
2023-02-02T21:49:36.755Z,30.03
2023-02-02T21:52:15.045Z,32.20
2023-02-02T21:54:42.590Z,29.50
2023-02-02T21:57:19.852Z,30.60
2023-02-02T21:59:48.427Z,30.13
2023-02-02T22:02:33.872Z,34.07
2023-02-02T22:05:02.654Z,27.10
2023-02-02T22:07:32.875Z,31.67
2023-02-02T22:09:59.528Z,31.73
2023-02-02T22:12:28.434Z,28.53
2023-02-02T22:15:03.658Z,27.93
2023-02-02T22:17:40.066Z,26.67
2023-02-02T22:20:15.689Z,25.23
2023-02-02T22:22:46.237Z,29.90
2023-02-02T22:25:18.629Z,21.53
2023-02-02T22:27:46.507Z,24.77
2023-02-02T22:30:39.411Z,29.83
2023-02-02T22:33:08.245Z,20.47
2023-02-02T22:35:35.509Z,24.40
2023-02-02T22:38:02.774Z,16.70
2023-02-02T22:40:29.828Z,24.23
2023-02-02T22:42:58.640Z,19.40
2023-02-02T22:45:25.878Z,17.93
2023-02-02T22:47:53.126Z,21.17
2023-02-02T22:50:22.468Z,25.67
2023-02-02T22:52:49.650Z,15.93
2023-02-02T22:55:17.301Z,16.60
2023-02-02T22:57:44.369Z,20.07
2023-02-02T23:00:14.408Z,17.60
2023-02-02T23:02:41.997Z,16.07
2023-02-02T23:05:10.621Z,19.13
2023-02-02T23:07:38.087Z,21.73
2023-02-02T23:10:06.268Z,15.33
2023-02-02T23:12:33.374Z,13.57
2023-02-02T23:15:00.036Z,20.93
2023-02-02T23:17:26.675Z,25.53
2023-02-02T23:19:53.379Z,16.97
2023-02-02T23:22:20.007Z,13.97
2023-02-02T23:24:46.613Z,23.03
2023-02-02T23:27:13.293Z,25.67
2023-02-02T23:29:40.001Z,15.97
2023-02-02T23:32:07.186Z,21.60
2023-02-02T23:34:33.860Z,20.93
2023-02-02T23:37:00.505Z,21.10
2023-02-02T23:39:27.128Z,18.67
2023-02-02T23:41:53.783Z,15.87
2023-02-02T23:44:20.429Z,22.13
2023-02-02T23:46:47.398Z,24.43
2023-02-02T23:49:14.165Z,17.37
2023-02-02T23:51:41.051Z,18.40
2023-02-02T23:54:10.165Z,25.67
2023-02-02T23:56:37.253Z,28.53
2023-02-02T23:59:03.874Z,20.50
